Terminal Aerodrome Forecast
Issued by NWS Paducah, KY

Home | Current Version | Previous Version | Graphics & Text | Print | Product List | Glossary On
Versions: 1 2 3 4 5 6 7 8 9 10 11 12
000
FTUS43 KPAH 181720
TAFPAH
TAF
KPAH 181720Z 1818/1918 VRB03KT P6SM SCT040
     FM190200 00000KT P6SM SCT200
     FM190900 00000KT 5SM BR SKC
     FM191300 26004KT P6SM FEW050=

USA.gov is the U.S. government's official web portal to all federal, state and local government web resources and services.